Time;durP1;ratioP1;P1;durP2;ratioP2;P2;SDS_P1;SDS_P2;PMS_P1;PMS_P2;Temp;Humidity;BMP_temperature;BMP_pressure;BME280_temperature;BME280_humidity;BME280_pressure;Samples;Min_cycle;Max_cycle;Signal;HPM_P1;HPM_P2
2023/06/05 00:01:25;;;;;;;10.10;4.38;;;;;;;;;;5000778;28;20430;-81
2023/06/05 00:03:58;;;;;;;10.20;4.38;;;;;;;;;;4998522;28;20442;-81
2023/06/05 00:06:31;;;;;;;12.33;4.63;;;;;;;;;;5007142;28;20433;-81
2023/06/05 00:08:59;;;;;;;12.33;4.67;;;;;;;;;;5001816;28;20512;-81
2023/06/05 00:11:27;;;;;;;10.10;4.32;;;;;;;;;;5029489;28;20436;-81
2023/06/05 00:13:56;;;;;;;10.77;4.93;;;;;;;;;;5026788;28;20440;-81
2023/06/05 00:16:29;;;;;;;9.13;4.40;;;;;;;;;;5005895;28;20841;-81
2023/06/05 00:18:57;;;;;;;13.20;4.47;;;;;;;;;;5030377;28;20437;-82
2023/06/05 00:21:25;;;;;;;9.27;4.43;;;;;;;;;;4998046;28;20972;-81
2023/06/05 00:23:58;;;;;;;9.07;4.60;;;;;;;;;;4997191;28;20432;-82
2023/06/05 00:26:26;;;;;;;11.05;4.45;;;;;;;;;;5002162;28;20436;-81
2023/06/05 00:28:55;;;;;;;10.27;4.80;;;;;;;;;;5031264;28;20426;-81
2023/06/05 00:31:23;;;;;;;9.40;4.63;;;;;;;;;;5037179;28;20429;-81
2023/06/05 00:33:56;;;;;;;11.40;4.45;;;;;;;;;;5033881;28;20449;-82
2023/06/05 00:36:29;;;;;;;10.07;4.72;;;;;;;;;;5009103;28;20429;-81
2023/06/05 00:38:57;;;;;;;9.90;4.75;;;;;;;;;;5019208;28;20440;-81
2023/06/05 00:41:30;;;;;;;10.98;4.20;;;;;;;;;;5036485;28;20852;-81
2023/06/05 00:44:04;;;;;;;9.45;4.50;;;;;;;;;;5032896;28;20414;-81
2023/06/05 00:46:37;;;;;;;10.13;4.40;;;;;;;;;;5003895;28;20901;-81
2023/06/05 00:49:06;;;;;;;7.85;4.15;;;;;;;;;;5033843;28;20430;-81
2023/06/05 00:51:34;;;;;;;13.17;4.50;;;;;;;;;;5001536;28;20524;-81
2023/06/05 00:54:07;;;;;;;9.47;4.50;;;;;;;;;;5002948;28;20447;-81
2023/06/05 00:56:36;;;;;;;9.60;4.28;;;;;;;;;;5036154;28;20474;-81
2023/06/05 00:59:12;;;;;;;9.55;4.10;;;;;;;;;;5009047;28;20428;-81
2023/06/05 01:01:40;;;;;;;10.52;4.10;;;;;;;;;;5005978;28;20440;-81
2023/06/05 01:04:13;;;;;;;8.98;4.00;;;;;;;;;;4995369;28;20426;-81
2023/06/05 01:06:46;;;;;;;8.93;3.90;;;;;;;;;;5030499;28;20444;-81
2023/06/05 01:09:19;;;;;;;10.43;4.33;;;;;;;;;;5008234;28;20504;-81
2023/06/05 01:11:54;;;;;;;8.35;4.15;;;;;;;;;;5033177;28;20764;-81
2023/06/05 01:14:27;;;;;;;8.82;4.20;;;;;;;;;;5001321;28;20437;-81
2023/06/05 01:17:02;;;;;;;7.90;4.27;;;;;;;;;;5032745;28;20430;-81
2023/06/05 01:19:36;;;;;;;9.50;4.43;;;;;;;;;;5003681;28;20949;-82
2023/06/05 01:22:08;;;;;;;7.78;4.28;;;;;;;;;;5031741;28;20440;-80
2023/06/05 01:24:43;;;;;;;8.68;4.38;;;;;;;;;;5032389;28;20449;-81
2023/06/05 01:27:19;;;;;;;9.25;4.50;;;;;;;;;;5001590;28;20442;-81
2023/06/05 01:29:55;;;;;;;11.05;4.60;;;;;;;;;;5030938;28;20433;-80
2023/06/05 01:32:31;;;;;;;9.18;4.43;;;;;;;;;;5027058;28;22388;-81
2023/06/05 01:34:59;;;;;;;13.13;4.90;;;;;;;;;;4993602;28;20437;-81
2023/06/05 01:37:28;;;;;;;8.80;4.50;;;;;;;;;;4993665;28;20879;-81
2023/06/05 01:40:02;;;;;;;10.98;4.53;;;;;;;;;;4995868;28;20438;-81
2023/06/05 01:42:36;;;;;;;9.48;4.85;;;;;;;;;;5005463;28;20441;-80
2023/06/05 01:45:09;;;;;;;8.95;4.55;;;;;;;;;;5007471;28;20433;-81
2023/06/05 01:47:42;;;;;;;9.70;4.40;;;;;;;;;;5004231;28;20429;-81
2023/06/05 01:50:12;;;;;;;8.48;4.20;;;;;;;;;;4998284;28;20428;-81
2023/06/05 01:52:41;;;;;;;9.65;4.65;;;;;;;;;;4993788;28;20444;-80
2023/06/05 01:55:16;;;;;;;10.10;4.32;;;;;;;;;;4993687;28;20447;-81
2023/06/05 01:57:49;;;;;;;9.13;4.50;;;;;;;;;;5000135;28;20440;-81
2023/06/05 02:00:18;;;;;;;7.15;4.10;;;;;;;;;;5033363;28;20412;-80
2023/06/05 02:02:51;;;;;;;8.17;4.03;;;;;;;;;;5029118;28;20440;-80
2023/06/05 02:05:24;;;;;;;9.38;4.60;;;;;;;;;;4994924;28;20434;-80
2023/06/05 02:07:58;;;;;;;9.07;4.30;;;;;;;;;;5023813;28;20430;-80
2023/06/05 02:10:33;;;;;;;9.55;4.30;;;;;;;;;;5000358;28;20434;-81
2023/06/05 02:13:05;;;;;;;11.10;4.20;;;;;;;;;;5026902;28;20441;-80
2023/06/05 02:15:34;;;;;;;10.13;4.00;;;;;;;;;;5025277;28;20815;-80
2023/06/05 02:18:04;;;;;;;9.43;4.30;;;;;;;;;;5025413;28;20440;-80
2023/06/05 02:20:32;;;;;;;10.70;5.20;;;;;;;;;;4996833;28;20437;-80
2023/06/05 02:23:00;;;;;;;9.25;4.55;;;;;;;;;;5031258;28;20417;-80
2023/06/05 02:25:34;;;;;;;8.70;4.40;;;;;;;;;;5003639;28;20412;-80
2023/06/05 02:28:07;;;;;;;7.95;4.20;;;;;;;;;;5002707;28;20443;-80
2023/06/05 02:30:44;;;;;;;9.45;4.53;;;;;;;;;;5005801;28;20763;-80
2023/06/05 02:33:17;;;;;;;10.52;5.25;;;;;;;;;;5031535;28;20438;-80
2023/06/05 02:35:45;;;;;;;10.90;5.15;;;;;;;;;;5001578;28;20420;-79
2023/06/05 02:38:14;;;;;;;10.75;5.60;;;;;;;;;;5032016;28;20427;-79
2023/06/05 02:40:48;;;;;;;10.23;5.20;;;;;;;;;;5005397;28;20433;-79
2023/06/05 02:43:22;;;;;;;14.30;6.00;;;;;;;;;;5003053;28;20804;-80
2023/06/05 02:45:50;;;;;;;11.68;5.30;;;;;;;;;;5031149;28;20427;-80
2023/06/05 02:48:23;;;;;;;11.75;5.50;;;;;;;;;;5032663;28;20435;-79
2023/06/05 02:50:57;;;;;;;11.57;5.57;;;;;;;;;;5031070;28;20425;-80
2023/06/05 02:53:25;;;;;;;11.23;5.83;;;;;;;;;;5028458;28;20932;-80
2023/06/05 02:56:01;;;;;;;13.55;6.30;;;;;;;;;;4999184;28;20424;-80
2023/06/05 02:58:34;;;;;;;12.30;6.25;;;;;;;;;;4991959;28;20418;-79
2023/06/05 03:01:02;;;;;;;15.02;6.50;;;;;;;;;;5010013;28;20442;-80
2023/06/05 03:03:36;;;;;;;13.25;6.93;;;;;;;;;;5001312;28;21447;-80
2023/06/05 03:06:11;;;;;;;12.35;6.38;;;;;;;;;;5024219;28;20434;-80
2023/06/05 03:08:47;;;;;;;15.00;6.65;;;;;;;;;;5022033;28;20430;-81
2023/06/05 03:11:21;;;;;;;14.85;7.32;;;;;;;;;;5021167;28;20786;-80
2023/06/05 03:13:50;;;;;;;14.25;7.07;;;;;;;;;;5020908;28;20438;-80
2023/06/05 03:16:34;;;;;;;12.50;6.87;;;;;;;;;;5025645;28;21101;-80
2023/06/05 03:19:02;;;;;;;14.27;7.20;;;;;;;;;;5025605;28;20446;-80
2023/06/05 03:21:37;;;;;;;12.83;7.07;;;;;;;;;;5023936;28;20436;-80
2023/06/05 03:24:12;;;;;;;13.20;6.55;;;;;;;;;;5024848;28;20791;-81
2023/06/05 03:26:52;;;;;;;12.65;6.70;;;;;;;;;;5023663;28;20925;-80
2023/06/05 03:29:25;;;;;;;12.57;6.55;;;;;;;;;;4992734;28;20784;-81
2023/06/05 03:31:58;;;;;;;14.23;6.90;;;;;;;;;;4994339;28;20449;-80
2023/06/05 03:34:36;;;;;;;11.60;6.50;;;;;;;;;;5028122;28;20434;-80
2023/06/05 03:37:09;;;;;;;11.45;6.20;;;;;;;;;;4993231;28;20435;-81
2023/06/05 03:39:38;;;;;;;11.85;6.45;;;;;;;;;;5021804;28;20445;-81
2023/06/05 03:42:09;;;;;;;14.52;6.55;;;;;;;;;;4998486;28;20428;-81
2023/06/05 03:44:42;;;;;;;11.80;6.35;;;;;;;;;;4990231;28;20430;-80
2023/06/05 03:47:15;;;;;;;13.23;6.35;;;;;;;;;;5023223;28;20438;-80
2023/06/05 03:49:50;;;;;;;12.70;6.63;;;;;;;;;;4995331;28;20436;-80
2023/06/05 03:52:23;;;;;;;12.15;6.55;;;;;;;;;;5025455;28;20453;-81
2023/06/05 03:54:53;;;;;;;13.95;6.55;;;;;;;;;;5021819;28;20435;-81
2023/06/05 03:57:22;;;;;;;13.50;6.95;;;;;;;;;;4996149;28;20412;-81
2023/06/05 03:59:55;;;;;;;14.93;6.70;;;;;;;;;;4995617;28;20430;-80
2023/06/05 04:02:28;;;;;;;13.65;6.82;;;;;;;;;;5028531;28;20437;-81
2023/06/05 04:04:56;;;;;;;12.68;6.65;;;;;;;;;;5003076;28;20459;-80
2023/06/05 04:07:24;;;;;;;15.98;6.38;;;;;;;;;;5028627;28;20434;-81
2023/06/05 04:09:57;;;;;;;13.40;5.88;;;;;;;;;;5029525;28;20438;-80
2023/06/05 04:12:31;;;;;;;12.55;6.68;;;;;;;;;;4995041;28;20432;-81
2023/06/05 04:15:06;;;;;;;14.23;6.05;;;;;;;;;;5029185;28;20432;-81
2023/06/05 04:17:41;;;;;;;12.90;6.38;;;;;;;;;;5002144;28;20433;-81
2023/06/05 04:20:14;;;;;;;12.00;5.97;;;;;;;;;;5002433;28;20445;-80
2023/06/05 04:22:47;;;;;;;14.75;6.38;;;;;;;;;;5003012;28;20436;-80
2023/06/05 04:25:20;;;;;;;12.17;6.73;;;;;;;;;;5034286;28;20520;-80
2023/06/05 04:27:51;;;;;;;12.40;6.32;;;;;;;;;;5013761;28;20426;-80
2023/06/05 04:30:19;;;;;;;13.32;6.68;;;;;;;;;;5035256;28;20506;-80
2023/06/05 04:32:54;;;;;;;14.60;6.40;;;;;;;;;;5008390;28;20424;-80
2023/06/05 04:35:27;;;;;;;11.30;6.10;;;;;;;;;;5034312;28;20752;-81
2023/06/05 04:37:56;;;;;;;13.43;6.50;;;;;;;;;;5009930;28;20420;-80
2023/06/05 04:40:31;;;;;;;15.10;6.97;;;;;;;;;;5008691;28;20428;-80
2023/06/05 04:43:05;;;;;;;13.88;6.18;;;;;;;;;;5006827;28;20867;-80
2023/06/05 04:45:38;;;;;;;12.45;6.13;;;;;;;;;;5034536;28;20430;-80
2023/06/05 04:48:12;;;;;;;13.63;6.30;;;;;;;;;;5004793;28;20413;-80
2023/06/05 04:50:45;;;;;;;12.65;6.45;;;;;;;;;;5034249;28;20425;-80
2023/06/05 04:53:13;;;;;;;13.40;6.68;;;;;;;;;;5033254;28;20825;-81
2023/06/05 04:55:44;;;;;;;12.93;7.22;;;;;;;;;;5032206;28;20767;-81
2023/06/05 04:58:13;;;;;;;12.57;6.68;;;;;;;;;;5030705;28;20434;-80
2023/06/05 05:00:44;;;;;;;14.45;7.25;;;;;;;;;;5024926;28;22534;-80
2023/06/05 05:03:18;;;;;;;15.93;7.03;;;;;;;;;;5023628;28;20432;-80
2023/06/05 05:05:51;;;;;;;11.93;6.55;;;;;;;;;;5000650;28;20435;-80
2023/06/05 05:08:19;;;;;;;13.02;6.68;;;;;;;;;;5027638;28;20443;-81
2023/06/05 05:10:47;;;;;;;11.80;6.25;;;;;;;;;;5023491;28;21396;-82
2023/06/05 05:13:16;;;;;;;11.32;5.63;;;;;;;;;;5025781;28;20451;-82
2023/06/05 05:15:45;;;;;;;9.85;5.32;;;;;;;;;;5025387;28;20997;-82
2023/06/05 05:18:18;;;;;;;10.40;5.40;;;;;;;;;;5009758;28;20442;-82
2023/06/05 05:20:46;;;;;;;11.00;5.50;;;;;;;;;;5027746;28;20526;-82
2023/06/05 05:23:14;;;;;;;10.43;5.28;;;;;;;;;;4997303;28;20436;-82
2023/06/05 05:25:47;;;;;;;10.23;5.40;;;;;;;;;;5026313;28;22417;-81
2023/06/05 05:28:21;;;;;;;9.68;5.30;;;;;;;;;;5002581;28;20438;-82
2023/06/05 05:30:55;;;;;;;13.18;6.00;;;;;;;;;;5000583;28;20428;-83
2023/06/05 05:33:31;;;;;;;9.32;5.30;;;;;;;;;;5011644;28;20432;-82
2023/06/05 05:36:05;;;;;;;9.73;5.60;;;;;;;;;;4997417;28;20441;-82
2023/06/05 05:38:38;;;;;;;12.00;5.60;;;;;;;;;;5000173;28;20931;-81
2023/06/05 05:41:11;;;;;;;11.27;5.72;;;;;;;;;;5025069;28;20445;-82
2023/06/05 05:43:40;;;;;;;12.57;5.85;;;;;;;;;;5029377;28;20443;-81
2023/06/05 05:46:13;;;;;;;11.40;6.20;;;;;;;;;;5001687;28;20452;-82
2023/06/05 05:48:46;;;;;;;11.60;5.95;;;;;;;;;;5001533;28;20432;-81
2023/06/05 05:51:19;;;;;;;13.13;6.20;;;;;;;;;;5034286;28;20473;-81
2023/06/05 05:54:01;;;;;;;12.32;6.20;;;;;;;;;;5082768;27;21217;-79
2023/06/05 05:56:29;;;;;;;10.20;5.75;;;;;;;;;;5075578;28;20425;-80
2023/06/05 05:59:03;;;;;;;14.15;6.55;;;;;;;;;;5083349;28;20429;-79
2023/06/05 06:01:36;;;;;;;12.60;6.85;;;;;;;;;;5072957;28;20435;-79
2023/06/05 06:04:04;;;;;;;16.00;6.43;;;;;;;;;;5076396;28;20431;-79
2023/06/05 06:06:37;;;;;;;17.65;6.93;;;;;;;;;;5095310;28;20421;-79
2023/06/05 06:09:13;;;;;;;13.18;6.47;;;;;;;;;;5083114;28;20443;-79
2023/06/05 06:11:42;;;;;;;13.35;6.90;;;;;;;;;;5112265;27;20432;-80
2023/06/05 06:14:15;;;;;;;11.57;5.97;;;;;;;;;;5077705;28;20434;-79
2023/06/05 06:16:49;;;;;;;13.57;6.38;;;;;;;;;;5076940;28;21371;-80
2023/06/05 06:19:23;;;;;;;10.73;6.00;;;;;;;;;;5076055;28;20431;-79
2023/06/05 06:21:56;;;;;;;12.50;6.25;;;;;;;;;;5076307;28;20428;-79
2023/06/05 06:24:25;;;;;;;13.45;6.45;;;;;;;;;;5073013;28;20434;-80
2023/06/05 06:26:58;;;;;;;13.88;6.68;;;;;;;;;;5074549;28;20422;-82
2023/06/05 06:29:32;;;;;;;13.45;6.32;;;;;;;;;;5070655;28;20439;-80
2023/06/05 06:32:05;;;;;;;12.38;6.28;;;;;;;;;;5070259;28;20463;-79
2023/06/05 06:34:38;;;;;;;10.93;5.25;;;;;;;;;;5074039;28;20916;-80
2023/06/05 06:37:11;;;;;;;10.63;5.87;;;;;;;;;;5073740;28;20448;-78
2023/06/05 06:39:40;;;;;;;12.35;5.13;;;;;;;;;;5074775;28;20424;-79
2023/06/05 06:42:09;;;;;;;11.32;5.35;;;;;;;;;;5077501;28;20454;-79
2023/06/05 06:44:40;;;;;;;12.67;5.77;;;;;;;;;;5085665;28;20424;-78
2023/06/05 06:47:13;;;;;;;13.30;5.68;;;;;;;;;;5071157;28;20433;-79
2023/06/05 06:49:46;;;;;;;12.07;5.20;;;;;;;;;;5072744;28;20429;-78
2023/06/05 06:52:20;;;;;;;12.55;5.00;;;;;;;;;;5074859;28;20425;-78
2023/06/05 06:54:54;;;;;;;9.33;5.07;;;;;;;;;;5103343;28;20439;-78
2023/06/05 06:57:27;;;;;;;11.27;4.97;;;;;;;;;;5090457;28;20431;-78
2023/06/05 06:59:55;;;;;;;10.05;5.25;;;;;;;;;;5092227;28;21077;-78
2023/06/05 07:02:27;;;;;;;10.57;4.60;;;;;;;;;;5079702;28;20434;-78
2023/06/05 07:04:55;;;;;;;9.13;4.43;;;;;;;;;;5065119;28;21718;-79
2023/06/05 07:07:29;;;;;;;9.35;4.88;;;;;;;;;;5047377;28;20438;-77
2023/06/05 07:10:03;;;;;;;10.68;4.90;;;;;;;;;;5056501;28;20441;-78
2023/06/05 07:12:36;;;;;;;8.27;3.40;;;;;;;;;;5064751;28;20901;-78
2023/06/05 07:15:09;;;;;;;7.97;3.63;;;;;;;;;;5055265;28;20426;-79
2023/06/05 07:17:42;;;;;;;10.23;3.70;;;;;;;;;;5052972;28;20421;-80
2023/06/05 07:20:15;;;;;;;9.40;4.00;;;;;;;;;;5060678;28;20426;-79
2023/06/05 07:22:43;;;;;;;8.98;3.55;;;;;;;;;;5055131;28;20434;-80
2023/06/05 07:25:19;;;;;;;8.32;3.88;;;;;;;;;;5063725;28;20813;-80
2023/06/05 07:27:47;;;;;;;9.18;3.60;;;;;;;;;;5058816;28;20513;-80
2023/06/05 07:30:20;;;;;;;7.40;3.45;;;;;;;;;;5061688;28;20520;-79
2023/06/05 07:32:48;;;;;;;7.88;3.38;;;;;;;;;;5051357;28;20430;-79
2023/06/05 07:35:16;;;;;;;9.00;3.45;;;;;;;;;;5049721;28;20417;-79
2023/06/05 07:37:44;;;;;;;6.47;3.00;;;;;;;;;;5050923;28;20437;-79
2023/06/05 07:40:12;;;;;;;6.53;3.00;;;;;;;;;;5057064;28;20430;-78
2023/06/05 07:42:46;;;;;;;7.07;3.17;;;;;;;;;;5058735;28;20429;-79
2023/06/05 07:45:16;;;;;;;8.15;3.17;;;;;;;;;;5051186;28;20508;-82
2023/06/05 07:47:44;;;;;;;8.07;2.95;;;;;;;;;;5051287;28;20426;-79
2023/06/05 07:50:17;;;;;;;6.47;2.97;;;;;;;;;;5054112;28;20430;-79
2023/06/05 07:52:45;;;;;;;6.57;2.97;;;;;;;;;;5061557;28;20443;-79
2023/06/05 07:55:18;;;;;;;6.05;2.92;;;;;;;;;;5066477;28;20438;-80
2023/06/05 07:57:47;;;;;;;10.23;3.28;;;;;;;;;;5053168;28;20437;-78
2023/06/05 08:00:17;;;;;;;6.20;3.30;;;;;;;;;;5052233;28;20441;-80
2023/06/05 08:02:50;;;;;;;9.03;3.13;;;;;;;;;;5050313;28;20437;-79
2023/06/05 08:05:19;;;;;;;9.10;3.10;;;;;;;;;;5055548;28;20421;-79
2023/06/05 08:07:52;;;;;;;7.10;2.80;;;;;;;;;;5053120;28;20434;-80
2023/06/05 08:10:19;;;;;;;7.80;3.28;;;;;;;;;;5063478;28;20425;-79
2023/06/05 08:12:49;;;;;;;7.05;2.95;;;;;;;;;;5058851;28;20422;-79
2023/06/05 08:15:22;;;;;;;6.13;2.80;;;;;;;;;;5062918;28;20429;-79
2023/06/05 08:17:54;;;;;;;7.55;3.10;;;;;;;;;;5060344;28;20429;-79
2023/06/05 08:20:22;;;;;;;7.60;2.90;;;;;;;;;;5053871;28;20885;-78
2023/06/05 08:22:57;;;;;;;7.55;3.00;;;;;;;;;;5055378;28;20436;-79
2023/06/05 08:25:29;;;;;;;7.25;3.00;;;;;;;;;;5059885;28;20894;-79
2023/06/05 08:28:04;;;;;;;6.72;3.20;;;;;;;;;;5063428;28;21132;-80
2023/06/05 08:30:32;;;;;;;6.80;3.00;;;;;;;;;;5058236;28;20439;-78
2023/06/05 08:33:04;;;;;;;5.60;2.78;;;;;;;;;;5052954;28;20437;-79
2023/06/05 08:35:32;;;;;;;7.93;2.92;;;;;;;;;;5053426;28;20965;-79
2023/06/05 08:38:01;;;;;;;6.72;2.72;;;;;;;;;;5066254;27;20481;-78
2023/06/05 08:40:36;;;;;;;7.78;3.10;;;;;;;;;;5052404;28;20480;-78
2023/06/05 08:43:05;;;;;;;5.43;2.80;;;;;;;;;;5058047;28;20435;-79
2023/06/05 08:45:33;;;;;;;6.88;2.80;;;;;;;;;;5071775;28;20441;-79
2023/06/05 08:48:01;;;;;;;7.18;2.92;;;;;;;;;;5058322;28;21007;-79
2023/06/05 08:50:31;;;;;;;6.25;2.90;;;;;;;;;;5070912;28;20434;-80
2023/06/05 08:52:59;;;;;;;6.47;2.72;;;;;;;;;;5050767;28;20433;-80
2023/06/05 08:55:27;;;;;;;5.82;2.78;;;;;;;;;;5051880;28;20925;-80
2023/06/05 08:57:55;;;;;;;8.05;3.00;;;;;;;;;;5055530;28;20426;-79
2023/06/05 09:00:28;;;;;;;5.53;2.75;;;;;;;;;;5036424;28;20437;-80
2023/06/05 09:03:01;;;;;;;6.43;2.70;;;;;;;;;;5034126;28;20453;-79
2023/06/05 09:05:34;;;;;;;5.13;2.70;;;;;;;;;;5034552;28;20435;-82
2023/06/05 09:08:07;;;;;;;6.25;2.60;;;;;;;;;;5047454;28;20435;-81
2023/06/05 09:10:35;;;;;;;7.13;3.20;;;;;;;;;;5029847;28;20428;-79
2023/06/05 09:13:09;;;;;;;8.88;2.90;;;;;;;;;;5032432;28;20431;-80
2023/06/05 09:15:38;;;;;;;11.52;2.80;;;;;;;;;;5036592;28;21149;-81
2023/06/05 09:18:12;;;;;;;6.88;2.60;;;;;;;;;;5030246;28;20440;-81
2023/06/05 09:20:47;;;;;;;8.07;2.60;;;;;;;;;;5040063;28;20435;-80
2023/06/05 09:23:24;;;;;;;5.68;2.58;;;;;;;;;;5034146;28;20421;-81
2023/06/05 09:25:52;;;;;;;10.93;4.50;;;;;;;;;;5032689;28;20423;-81
2023/06/05 09:28:25;;;;;;;7.87;3.10;;;;;;;;;;5032637;28;20423;-81
2023/06/05 09:31:00;;;;;;;5.60;2.43;;;;;;;;;;5033634;28;20432;-80
2023/06/05 09:33:29;;;;;;;5.28;2.30;;;;;;;;;;5033680;28;20439;-80
2023/06/05 09:36:04;;;;;;;5.93;2.50;;;;;;;;;;5036363;28;20427;-80
2023/06/05 09:38:32;;;;;;;7.30;2.40;;;;;;;;;;5029558;28;21167;-80
2023/06/05 09:41:05;;;;;;;4.47;2.28;;;;;;;;;;5035690;28;20949;-80
2023/06/05 09:43:39;;;;;;;4.63;2.22;;;;;;;;;;5042167;28;20446;-80
2023/06/05 09:46:13;;;;;;;6.70;2.40;;;;;;;;;;5040993;28;20435;-80
2023/06/05 09:48:43;;;;;;;5.00;2.20;;;;;;;;;;5040015;28;20419;-81
2023/06/05 09:51:13;;;;;;;5.38;2.30;;;;;;;;;;5037259;28;20439;-80
2023/06/05 09:53:46;;;;;;;6.75;2.33;;;;;;;;;;5046214;28;20442;-80
2023/06/05 09:56:20;;;;;;;6.17;2.50;;;;;;;;;;5030836;28;20528;-80
2023/06/05 09:58:53;;;;;;;4.13;2.10;;;;;;;;;;5035239;28;20427;-79
2023/06/05 10:01:28;;;;;;;4.38;1.80;;;;;;;;;;5002955;28;20427;-80
2023/06/05 10:04:03;;;;;;;3.88;1.70;;;;;;;;;;5026066;28;20499;-80
2023/06/05 10:06:37;;;;;;;5.97;1.90;;;;;;;;;;5045590;28;20423;-80
2023/06/05 10:09:11;;;;;;;8.10;3.28;;;;;;;;;;5025197;28;20432;-81
2023/06/05 10:11:40;;;;;;;4.63;2.20;;;;;;;;;;5028930;28;21015;-80
2023/06/05 10:14:09;;;;;;;5.20;2.30;;;;;;;;;;5039476;28;20452;-80
2023/06/05 10:16:39;;;;;;;6.20;2.63;;;;;;;;;;5034007;28;20439;-79
2023/06/05 10:19:07;;;;;;;6.22;2.20;;;;;;;;;;5045235;28;20448;-81
2023/06/05 10:21:35;;;;;;;5.38;2.30;;;;;;;;;;5029950;28;20982;-81
2023/06/05 10:24:12;;;;;;;6.50;2.63;;;;;;;;;;5028280;28;20431;-81
2023/06/05 10:26:57;;;;;;;4.70;2.30;;;;;;;;;;5033066;28;20910;-81
2023/06/05 10:29:49;;;;;;;7.70;2.10;;;;;;;;;;5031212;28;20424;-81
2023/06/05 10:32:34;;;;;;;5.40;2.20;;;;;;;;;;5035233;28;20431;-81
2023/06/05 10:35:10;;;;;;;5.40;2.20;;;;;;;;;;5033127;28;20423;-80
2023/06/05 10:37:42;;;;;;;5.35;2.13;;;;;;;;;;5029104;28;20440;-80
2023/06/05 10:40:10;;;;;;;6.22;2.28;;;;;;;;;;5032036;28;20433;-80
2023/06/05 10:42:43;;;;;;;5.72;2.60;;;;;;;;;;5028004;28;20439;-81
2023/06/05 10:45:30;;;;;;;5.10;2.00;;;;;;;;;;5033780;28;20911;-81
2023/06/05 10:47:59;;;;;;;4.95;2.10;;;;;;;;;;5038013;28;20436;-80
2023/06/05 10:50:30;;;;;;;5.55;2.08;;;;;;;;;;5032898;28;20446;-80
2023/06/05 10:53:03;;;;;;;3.83;2.15;;;;;;;;;;5035201;28;21396;-81
2023/06/05 10:55:42;;;;;;;3.83;1.90;;;;;;;;;;5039442;28;20427;-81
2023/06/05 10:58:13;;;;;;;5.75;2.00;;;;;;;;;;5031099;28;20439;-81
2023/06/05 11:01:01;;;;;;;6.28;2.20;;;;;;;;;;5035499;28;20434;-81
2023/06/05 11:03:44;;;;;;;4.93;1.90;;;;;;;;;;4998602;28;20447;-81
2023/06/05 11:06:18;;;;;;;3.50;1.80;;;;;;;;;;5035498;28;20418;-80
2023/06/05 11:09:06;;;;;;;5.32;2.00;;;;;;;;;;5031193;28;20451;-80
2023/06/05 11:11:49;;;;;;;3.30;1.90;;;;;;;;;;5032597;28;20439;-83
2023/06/05 11:14:17;;;;;;;5.07;1.85;;;;;;;;;;5031319;28;20431;-81
2023/06/05 11:16:50;;;;;;;4.10;2.05;;;;;;;;;;5035658;28;20431;-81
2023/06/05 11:19:36;;;;;;;3.80;1.85;;;;;;;;;;5033955;28;20420;-81
2023/06/05 11:22:11;;;;;;;5.10;2.00;;;;;;;;;;5032408;28;20443;-81
2023/06/05 11:24:43;;;;;;;5.03;1.92;;;;;;;;;;5033484;28;20435;-80
2023/06/05 11:27:31;;;;;;;3.70;2.00;;;;;;;;;;5035772;28;20978;-80
2023/06/05 11:30:05;;;;;;;3.85;1.95;;;;;;;;;;5028677;28;20432;-81
2023/06/05 11:32:34;;;;;;;4.00;1.90;;;;;;;;;;5030912;28;20532;-81
2023/06/05 11:35:08;;;;;;;6.17;2.00;;;;;;;;;;5035131;28;20425;-78
2023/06/05 11:37:38;;;;;;;5.28;1.90;;;;;;;;;;5034942;28;21074;-80
2023/06/05 11:40:09;;;;;;;4.97;2.07;;;;;;;;;;5030176;28;20427;-80
2023/06/05 11:42:41;;;;;;;3.95;1.80;;;;;;;;;;5032764;28;20428;-80
2023/06/05 11:45:11;;;;;;;3.92;1.95;;;;;;;;;;5031331;28;20439;-80
2023/06/05 11:47:44;;;;;;;4.27;2.00;;;;;;;;;;5034942;28;20438;-80
2023/06/05 11:50:13;;;;;;;5.75;2.00;;;;;;;;;;5032002;28;20434;-81
2023/06/05 11:52:43;;;;;;;3.47;1.88;;;;;;;;;;5035146;28;20958;-80
2023/06/05 11:55:19;;;;;;;4.65;1.80;;;;;;;;;;5039789;28;20981;-81
2023/06/05 11:57:52;;;;;;;5.57;1.98;;;;;;;;;;5035271;28;20842;-81
2023/06/05 12:00:23;;;;;;;3.77;1.90;;;;;;;;;;5027362;28;20439;-79
2023/06/05 12:02:56;;;;;;;5.65;2.00;;;;;;;;;;5003534;28;20447;-79
2023/06/05 12:05:29;;;;;;;4.20;1.87;;;;;;;;;;5027531;28;20423;-80
2023/06/05 12:07:59;;;;;;;3.40;1.80;;;;;;;;;;5030939;28;20427;-80
2023/06/05 12:10:36;;;;;;;6.40;1.95;;;;;;;;;;5026848;28;20478;-80
2023/06/05 12:13:04;;;;;;;4.88;2.10;;;;;;;;;;5037792;28;20423;-80
2023/06/05 12:15:36;;;;;;;6.80;1.85;;;;;;;;;;5034857;28;20649;-79
2023/06/05 12:18:04;;;;;;;3.67;1.88;;;;;;;;;;5037519;28;20444;-79
2023/06/05 12:20:39;;;;;;;4.25;1.95;;;;;;;;;;5024848;28;21379;-78
2023/06/05 12:23:19;;;;;;;3.92;1.98;;;;;;;;;;5024891;28;20439;-80
2023/06/05 12:25:58;;;;;;;3.75;2.00;;;;;;;;;;5028462;28;20446;-80
2023/06/05 12:28:31;;;;;;;5.40;1.92;;;;;;;;;;5024626;28;20435;-80
2023/06/05 12:30:59;;;;;;;4.07;2.00;;;;;;;;;;5031774;28;20431;-80
2023/06/05 12:33:32;;;;;;;6.53;2.08;;;;;;;;;;5031141;28;20431;-80
2023/06/05 12:36:04;;;;;;;4.97;1.95;;;;;;;;;;5031097;28;21045;-79
2023/06/05 12:38:37;;;;;;;4.57;2.10;;;;;;;;;;5028056;28;20435;-81
2023/06/05 12:41:06;;;;;;;4.05;1.75;;;;;;;;;;5033243;28;21120;-81
2023/06/05 12:43:34;;;;;;;4.07;1.80;;;;;;;;;;5033471;28;20431;-82
2023/06/05 12:46:08;;;;;;;4.73;1.87;;;;;;;;;;5030942;28;20440;-79
2023/06/05 12:48:41;;;;;;;4.47;2.00;;;;;;;;;;5027948;28;20436;-79
2023/06/05 12:51:13;;;;;;;5.13;1.98;;;;;;;;;;5033820;28;20436;-79
2023/06/05 12:53:43;;;;;;;4.05;1.98;;;;;;;;;;5030241;28;20423;-80
2023/06/05 12:56:16;;;;;;;5.07;2.13;;;;;;;;;;5031135;28;20439;-80
2023/06/05 12:58:44;;;;;;;4.03;1.80;;;;;;;;;;5031891;28;21947;-79
2023/06/05 13:01:17;;;;;;;3.35;1.80;;;;;;;;;;5027058;28;21993;-80
2023/06/05 13:03:45;;;;;;;5.60;2.00;;;;;;;;;;5012299;28;20443;-79
2023/06/05 13:06:18;;;;;;;6.63;2.15;;;;;;;;;;5032892;28;20434;-79
2023/06/05 13:08:47;;;;;;;12.95;7.75;;;;;;;;;;5034533;28;20435;-78
2023/06/05 13:11:15;;;;;;;3.40;1.87;;;;;;;;;;5044819;28;20425;-79
2023/06/05 13:13:51;;;;;;;4.18;1.80;;;;;;;;;;5031612;28;20440;-80
2023/06/05 13:16:24;;;;;;;3.65;2.00;;;;;;;;;;5032508;28;20419;-81
2023/06/05 13:18:58;;;;;;;3.47;1.75;;;;;;;;;;5028070;28;21238;-78
2023/06/05 13:21:32;;;;;;;3.88;1.88;;;;;;;;;;5030036;28;20442;-80
2023/06/05 13:24:04;;;;;;;3.57;1.80;;;;;;;;;;5041826;28;20432;-78
2023/06/05 13:26:34;;;;;;;4.00;1.90;;;;;;;;;;5047253;28;20425;-79
2023/06/05 13:29:16;;;;;;;4.75;1.90;;;;;;;;;;5040100;28;20423;-80
2023/06/05 13:31:49;;;;;;;4.68;1.88;;;;;;;;;;5030860;28;20427;-80
2023/06/05 13:34:17;;;;;;;4.40;2.00;;;;;;;;;;5026792;28;20442;-79
2023/06/05 13:36:50;;;;;;;3.42;1.80;;;;;;;;;;5026430;28;20430;-78
2023/06/05 13:39:19;;;;;;;9.70;2.70;;;;;;;;;;5030099;28;20792;-80
2023/06/05 13:41:52;;;;;;;6.63;2.10;;;;;;;;;;5027266;28;20450;-79
2023/06/05 13:44:20;;;;;;;5.22;1.98;;;;;;;;;;5031437;28;20430;-78
2023/06/05 13:46:48;;;;;;;3.65;1.85;;;;;;;;;;5033906;28;20438;-80
2023/06/05 13:49:21;;;;;;;4.50;1.70;;;;;;;;;;5032285;28;20438;-80
2023/06/05 13:51:53;;;;;;;4.05;1.90;;;;;;;;;;5033286;28;20431;-79
2023/06/05 13:54:22;;;;;;;3.70;1.80;;;;;;;;;;5027309;28;20424;-79
2023/06/05 13:56:55;;;;;;;4.28;1.90;;;;;;;;;;5049308;28;20424;-80
2023/06/05 13:59:28;;;;;;;4.18;2.05;;;;;;;;;;5031963;28;20443;-80
2023/06/05 14:02:01;;;;;;;4.38;2.05;;;;;;;;;;5031173;28;20446;-78
2023/06/05 14:04:29;;;;;;;5.65;2.20;;;;;;;;;;5034395;28;20525;-79
2023/06/05 14:07:03;;;;;;;5.78;2.08;;;;;;;;;;5030144;28;20423;-78
2023/06/05 14:09:32;;;;;;;4.63;1.90;;;;;;;;;;5034727;28;20443;-79
2023/06/05 14:12:00;;;;;;;4.47;2.10;;;;;;;;;;5031617;28;20434;-83
2023/06/05 14:14:27;;;;;;;5.70;2.45;;;;;;;;;;5039328;28;20427;-80
2023/06/05 14:17:00;;;;;;;6.00;2.65;;;;;;;;;;5037049;28;20430;-79
2023/06/05 14:19:33;;;;;;;3.75;2.08;;;;;;;;;;5033948;28;20427;-79
2023/06/05 14:22:01;;;;;;;6.25;2.13;;;;;;;;;;5025269;28;20443;-79
2023/06/05 14:24:29;;;;;;;6.10;2.03;;;;;;;;;;5042261;28;20922;-79
2023/06/05 14:26:58;;;;;;;3.03;1.70;;;;;;;;;;5044068;28;20457;-80
2023/06/05 14:29:31;;;;;;;4.40;1.90;;;;;;;;;;5037905;28;20424;-79
2023/06/05 14:32:04;;;;;;;4.55;2.00;;;;;;;;;;5035191;28;20419;-79
2023/06/05 14:34:37;;;;;;;4.38;1.98;;;;;;;;;;5038561;28;21170;-79
2023/06/05 14:37:10;;;;;;;5.03;1.90;;;;;;;;;;5033170;28;20446;-80
2023/06/05 14:39:38;;;;;;;5.95;1.95;;;;;;;;;;5035574;28;20784;-78
2023/06/05 14:42:12;;;;;;;4.77;1.90;;;;;;;;;;5036094;28;20887;-81
2023/06/05 14:44:40;;;;;;;4.97;1.90;;;;;;;;;;5036653;28;20428;-78
2023/06/05 14:47:08;;;;;;;3.63;1.90;;;;;;;;;;5031949;28;20426;-78
2023/06/05 14:49:41;;;;;;;3.65;1.70;;;;;;;;;;5037119;28;20424;-79
2023/06/05 14:52:14;;;;;;;3.22;1.90;;;;;;;;;;5042449;28;20434;-80
2023/06/05 14:54:47;;;;;;;4.23;1.80;;;;;;;;;;5033532;28;20427;-79
2023/06/05 14:57:21;;;;;;;6.35;2.22;;;;;;;;;;5033747;28;20429;-80
2023/06/05 14:59:53;;;;;;;3.85;1.88;;;;;;;;;;5037908;28;20438;-81
2023/06/05 15:02:22;;;;;;;4.20;2.25;;;;;;;;;;5010686;28;20954;-79
2023/06/05 15:04:55;;;;;;;4.57;1.90;;;;;;;;;;5031473;28;20431;-79
2023/06/05 15:07:35;;;;;;;3.95;2.00;;;;;;;;;;5035922;28;20910;-79